createdAt,value
2023-01-05T00:03:15.242Z,90.99
2023-01-05T00:08:20.620Z,91.10
2023-01-05T00:13:44.077Z,91.00
2023-01-05T00:19:07.769Z,90.39
2023-01-05T00:24:13.226Z,90.30
2023-01-05T00:29:18.615Z,90.18
2023-01-05T00:34:24.128Z,90.00
2023-01-05T00:39:29.507Z,89.83
2023-01-05T00:44:34.952Z,89.63
2023-01-05T00:49:40.475Z,89.49
2023-01-05T00:54:45.933Z,89.54
2023-01-05T00:59:51.376Z,89.41
2023-01-05T01:04:57.373Z,89.11
2023-01-05T01:10:02.844Z,88.83
2023-01-05T01:15:11.232Z,88.53
2023-01-05T01:20:17.887Z,88.53
2023-01-05T01:25:23.587Z,88.85
2023-01-05T01:30:29.118Z,88.73
2023-01-05T01:35:34.690Z,88.72
2023-01-05T01:40:42.176Z,88.97
2023-01-05T01:45:47.896Z,88.94
2023-01-05T01:50:56.038Z,89.39
2023-01-05T01:56:04.599Z,89.72
2023-01-05T02:01:10.836Z,89.96
2023-01-05T02:06:16.936Z,90.31
2023-01-05T02:12:00.544Z,90.45
2023-01-05T02:17:27.339Z,90.59
2023-01-05T02:22:53.142Z,91.04
2023-01-05T02:28:35.711Z,90.77
2023-01-05T02:33:55.895Z,91.02
2023-01-05T02:39:11.105Z,91.10
2023-01-05T02:44:21.172Z,91.05
2023-01-05T02:49:29.893Z,90.88
2023-01-05T02:54:38.454Z,90.99
2023-01-05T02:59:47.039Z,90.65
2023-01-05T03:05:07.998Z,90.43
2023-01-05T03:10:33.079Z,89.85
2023-01-05T03:15:40.889Z,89.65
2023-01-05T03:20:49.901Z,89.18
2023-01-05T03:26:14.690Z,88.89
2023-01-05T03:31:46.781Z,88.90
2023-01-05T03:36:55.261Z,88.67
2023-01-05T03:42:01.545Z,88.33
2023-01-05T03:47:07.263Z,87.51
2023-01-05T03:52:13.240Z,87.22
2023-01-05T03:57:19.479Z,86.48
2023-01-05T04:02:25.677Z,85.77
2023-01-05T04:07:31.579Z,85.12
2023-01-05T04:12:37.453Z,84.99
2023-01-05T04:17:43.412Z,84.73
2023-01-05T04:22:50.040Z,84.19
2023-01-05T04:27:57.135Z,83.77
2023-01-05T04:33:02.974Z,83.39
2023-01-05T04:38:08.794Z,83.23
2023-01-05T04:43:14.507Z,83.10
2023-01-05T04:48:20.864Z,82.83
2023-01-05T04:53:26.452Z,82.80
2023-01-05T04:58:32.688Z,82.75
2023-01-05T05:03:38.182Z,82.80
2023-01-05T05:08:45.418Z,82.75
2023-01-05T05:13:51.030Z,82.25
2023-01-05T05:18:57.738Z,81.63
2023-01-05T05:24:04.768Z,81.85
2023-01-05T05:29:12.084Z,81.67
2023-01-05T05:34:17.972Z,81.40
2023-01-05T05:39:23.430Z,81.13
2023-01-05T05:44:28.885Z,80.83
2023-01-05T05:49:34.263Z,80.12
2023-01-05T05:54:39.693Z,79.95
2023-01-05T05:59:45.205Z,79.16
2023-01-05T06:04:50.730Z,78.94
2023-01-05T06:09:57.051Z,78.36
2023-01-05T06:15:02.655Z,77.96
2023-01-05T06:20:09.838Z,77.72
2023-01-05T06:25:15.979Z,77.57
2023-01-05T06:30:21.489Z,77.45
2023-01-05T06:35:27.206Z,77.41
2023-01-05T06:40:32.890Z,77.37
2023-01-05T06:45:38.417Z,76.97
2023-01-05T06:50:43.992Z,76.60
2023-01-05T06:55:49.422Z,76.44
2023-01-05T07:00:57.982Z,76.15
2023-01-05T07:06:05.989Z,76.08
2023-01-05T07:11:11.853Z,75.55
2023-01-05T07:16:18.590Z,75.10
2023-01-05T07:21:24.093Z,75.24
2023-01-05T07:26:29.530Z,74.42
2023-01-05T07:31:34.950Z,74.03
2023-01-05T07:36:40.581Z,73.95
2023-01-05T07:41:46.405Z,73.39
2023-01-05T07:46:53.909Z,73.37
2023-01-05T07:51:59.369Z,73.23
2023-01-05T07:57:05.091Z,73.06
2023-01-05T08:02:11.562Z,72.95
2023-01-05T08:07:17.151Z,72.49
2023-01-05T08:12:22.613Z,72.24
2023-01-05T08:17:28.011Z,72.21
2023-01-05T08:22:33.620Z,72.02
2023-01-05T08:27:39.011Z,71.63
2023-01-05T08:32:44.528Z,71.51
2023-01-05T08:37:49.982Z,71.45
2023-01-05T08:42:55.362Z,71.40
2023-01-05T08:48:02.416Z,71.61
2023-01-05T08:53:07.878Z,71.46
2023-01-05T08:58:13.310Z,71.64
2023-01-05T09:03:18.764Z,71.66
2023-01-05T09:08:24.209Z,71.54
2023-01-05T09:13:29.658Z,71.42
2023-01-05T09:18:35.108Z,71.68
2023-01-05T09:23:41.419Z,71.58
2023-01-05T09:28:47.271Z,71.47
2023-01-05T09:33:53.193Z,71.62
2023-01-05T09:38:59.015Z,71.64
2023-01-05T09:44:18.220Z,72.47
2023-01-05T09:49:25.795Z,72.65
2023-01-05T09:54:34.903Z,73.25
2023-01-05T09:59:46.175Z,73.88
2023-01-05T10:04:54.333Z,74.36
2023-01-05T10:10:02.997Z,74.60
2023-01-05T10:15:20.754Z,75.36
2023-01-05T10:20:44.613Z,75.12
2023-01-05T10:26:02.553Z,75.40
2023-01-05T10:31:19.966Z,75.47
2023-01-05T10:42:05.567Z,76.16
2023-01-05T10:47:14.768Z,76.89
2023-01-05T10:52:23.376Z,78.13
2023-01-05T10:57:36.693Z,79.34
2023-01-05T11:02:44.925Z,79.60
2023-01-05T11:07:57.895Z,79.30
2023-01-05T11:13:09.703Z,79.46
2023-01-05T11:18:27.074Z,79.14
2023-01-05T11:23:41.764Z,79.33
2023-01-05T11:29:01.586Z,80.18
2023-01-05T11:34:10.410Z,80.56
2023-01-05T11:39:36.728Z,80.85
2023-01-05T11:44:50.919Z,80.48
2023-01-05T11:50:07.157Z,80.84
2023-01-05T11:55:40.102Z,80.42
2023-01-05T12:01:23.484Z,80.53
2023-01-05T12:06:34.582Z,79.44
2023-01-05T12:11:45.810Z,77.98
2023-01-05T12:16:54.513Z,77.81
2023-01-05T12:22:32.755Z,76.79
2023-01-05T12:28:23.762Z,77.21
2023-01-05T12:39:06.111Z,76.59
2023-01-05T12:44:26.297Z,76.25
2023-01-05T12:49:40.785Z,76.30
2023-01-05T12:54:52.682Z,75.69
2023-01-05T13:00:01.171Z,75.26
2023-01-05T13:05:21.403Z,75.63
2023-01-05T13:10:32.825Z,75.76
2023-01-05T13:15:42.216Z,75.04
2023-01-05T13:20:53.639Z,74.95
2023-01-05T13:26:07.780Z,74.65
2023-01-05T13:31:36.075Z,74.04
2023-01-05T13:36:56.033Z,73.68
2023-01-05T13:42:23.947Z,73.34
2023-01-05T13:47:47.444Z,73.02
2023-01-05T13:53:01.688Z,73.16
2023-01-05T13:58:09.559Z,72.83
2023-01-05T14:03:23.215Z,72.92
2023-01-05T14:08:37.735Z,72.79
2023-01-05T14:13:52.285Z,72.64
2023-01-05T14:19:16.033Z,72.70
2023-01-05T14:24:33.528Z,70.15
2023-01-05T14:29:59.598Z,71.71
2023-01-05T14:35:26.337Z,71.94
2023-01-05T14:40:51.234Z,71.73
2023-01-05T14:46:02.565Z,72.05
2023-01-05T14:51:12.853Z,71.91
2023-01-05T14:56:21.354Z,71.70
2023-01-05T15:07:13.018Z,73.36
2023-01-05T15:12:23.928Z,71.23
2023-01-05T15:17:45.947Z,71.60
2023-01-05T15:23:03.658Z,71.92
2023-01-05T15:28:46.563Z,72.25
2023-01-05T15:33:55.043Z,72.77
2023-01-05T15:39:00.951Z,72.92
2023-01-05T15:44:07.148Z,73.92
2023-01-05T15:49:27.705Z,75.80
2023-01-05T15:54:34.483Z,75.80
2023-01-05T15:59:41.890Z,76.26
2023-01-05T16:04:47.471Z,76.78
2023-01-05T16:09:52.999Z,77.13
2023-01-05T16:15:01.876Z,77.68
2023-01-05T16:20:10.377Z,78.02
2023-01-05T16:25:18.908Z,78.55
2023-01-05T16:30:33.614Z,79.29
2023-01-05T16:35:47.699Z,79.29
2023-01-05T16:41:12.379Z,79.16
2023-01-05T16:46:22.540Z,79.16
2023-01-05T16:51:37.450Z,79.51
2023-01-05T16:56:58.056Z,79.60
2023-01-05T17:02:06.489Z,79.35
2023-01-05T17:07:12.520Z,79.30
2023-01-05T17:12:18.538Z,79.34
2023-01-05T17:17:25.003Z,79.22
2023-01-05T17:22:30.509Z,79.18
2023-01-05T17:27:36.043Z,79.14
2023-01-05T17:32:41.447Z,79.03
2023-01-05T17:37:47.063Z,78.92
2023-01-05T17:42:52.575Z,79.00
2023-01-05T17:47:58.433Z,78.93
2023-01-05T17:53:05.943Z,78.67
2023-01-05T17:58:14.471Z,78.70
2023-01-05T18:03:22.545Z,78.76
2023-01-05T18:08:28.806Z,78.78
2023-01-05T18:13:34.969Z,78.78
2023-01-05T18:18:41.926Z,78.85
2023-01-05T18:23:47.510Z,78.64
2023-01-05T18:28:54.679Z,78.73
2023-01-05T18:34:00.134Z,78.67
2023-01-05T18:39:06.456Z,78.52
2023-01-05T18:44:11.989Z,78.68
2023-01-05T18:49:18.418Z,78.27
2023-01-05T18:54:24.055Z,78.38
2023-01-05T18:59:29.525Z,78.16
2023-01-05T19:04:35.135Z,78.03
2023-01-05T19:09:40.638Z,78.12
2023-01-05T19:14:46.080Z,79.11
2023-01-05T19:19:51.473Z,78.32
2023-01-05T19:24:58.675Z,78.79
2023-01-05T19:30:04.200Z,78.85
2023-01-05T19:35:10.303Z,79.24
2023-01-05T19:40:15.936Z,79.69
2023-01-05T19:45:21.594Z,80.07
2023-01-05T19:50:27.289Z,80.68
2023-01-05T19:55:32.669Z,81.35
2023-01-05T20:00:38.057Z,81.81
2023-01-05T20:05:43.668Z,82.78
2023-01-05T20:10:49.215Z,82.78
2023-01-05T20:15:54.636Z,82.95
2023-01-05T20:21:01.565Z,83.94
2023-01-05T20:26:13.106Z,83.94
2023-01-05T20:31:25.913Z,84.38
2023-01-05T20:36:31.749Z,84.48
2023-01-05T20:41:40.093Z,84.55
2023-01-05T20:46:48.476Z,84.55
2023-01-05T20:51:55.039Z,85.15
2023-01-05T20:57:22.832Z,85.36
2023-01-05T21:02:28.333Z,85.36
2023-01-05T21:07:33.872Z,85.31
2023-01-05T21:12:39.493Z,85.60
2023-01-05T21:17:44.987Z,85.60
2023-01-05T21:22:50.485Z,85.99
2023-01-05T21:27:55.999Z,85.99
2023-01-05T21:33:01.460Z,85.85
2023-01-05T21:38:07.712Z,86.19
2023-01-05T21:43:13.201Z,86.00
2023-01-05T21:48:18.615Z,86.43
2023-01-05T21:53:42.053Z,87.13
2023-01-05T21:58:47.979Z,87.03
2023-01-05T22:03:53.751Z,86.79
2023-01-05T22:08:59.693Z,86.83
2023-01-05T22:14:05.446Z,87.16
2023-01-05T22:19:14.160Z,86.98
2023-01-05T22:24:19.707Z,87.02
2023-01-05T22:29:25.735Z,87.69
2023-01-05T22:34:32.001Z,87.69
2023-01-05T22:39:37.469Z,87.50
2023-01-05T22:44:42.996Z,87.45
2023-01-05T22:49:48.541Z,87.63
2023-01-05T22:54:54.075Z,87.32
2023-01-05T22:59:59.799Z,87.62
2023-01-05T23:05:05.846Z,87.45
2023-01-05T23:10:11.869Z,87.45
2023-01-05T23:15:17.502Z,87.45
2023-01-05T23:20:24.657Z,87.49
2023-01-05T23:25:30.030Z,87.99
2023-01-05T23:30:35.433Z,87.64
2023-01-05T23:35:41.017Z,87.64
2023-01-05T23:40:48.506Z,87.93
2023-01-05T23:45:55.835Z,87.84
2023-01-05T23:51:01.346Z,87.55
2023-01-05T23:56:12.923Z,87.55
